Terminal Aerodrome Forecast
Issued by NWS

Home | Current Version | Previous Version | Text Only | Print | Product List | Glossary On
Versions: 1 2 3 4 5 6 7 8 9 10 11 12 13 14 15 16 17 18 19 20 21 22 23 24 25 26 27 28 29 30 31
000
FTUS46 KEKA 250600 AAA
TAFCEC
TAF AMD
KCEC 250600Z 2506/2606 00000KT 3/4SM BR VV002
      TEMPO 2506/2508 3SM BR SCT003 OVC024
     FM250800 VRB03KT 3SM BR VCSH BKN005 OVC025
     FM251300 VRB03KT 4SM BR VCSH BKN008 OVC015
     FM251700 17004KT 5SM BR OVC025 PROB30 2517/2521 2SM -SHRA
      OVC025
     FM252200 31011KT 6SM BR VCSH BKN025 BKN040
     FM260300 33009KT 4SM BR OVC015 PROB30 2603/2606 4SM -DZ OVC015=

USA.gov is the U.S. government's official web portal to all federal, state and local government web resources and services.